Weather at Lightning Bolt Field Airport

Public forecast

Using degrees Fahrenheit for public forecast. Weather courtesy of forecast.io.

Closest aviation weather report (METAR) to Lightning Bolt Field Airport

Closest report is Caledonia County Airport, 14.6 nm (27.0 km) NE.

2024/07/25 09:35 (retrieved 10 minutes ago)

KCDA 250935Z AUTO 12006KT 10SM BKN010 OVC024 18/17 A3004 RMK AO2 T01800170

Closest aviation forecast (TAF) to Lightning Bolt Field Airport

Closest forecast is Edward F Knapp State Airport, 17.5 nm (32.4 km) SW.

2024/07/25 06:33 (retrieved 3 hours ago)

TAF KMPV 250530Z 2506/2606 17006KT P6SM OVC012 TEMPO 2509/2512 3SM BR OVC009 FM251300 21005KT P6SM SCT020 FM251500 23006KT P6SM SCT035 FM252000 28010G17KT P6SM VCSH SCT070 FM260200 29007KT P6SM SCT025